Time;durP1;ratioP1;P1;durP2;ratioP2;P2;SDS_P1;SDS_P2;PMS_P1;PMS_P2;Temp;Humidity;BMP_temperature;BMP_pressure;BME280_temperature;BME280_humidity;BME280_pressure;Samples;Min_cycle;Max_cycle;Signal;HPM_P1;HPM_P2
2022/06/05 00:00:20;;;;;;;3.10;1.80;;;;;;;15.28;71.25;101838.13;6221737;28;20050;-74
2022/06/05 00:03:31;;;;;;;2.50;1.85;;;;;;;15.14;71.19;101831.81;6221623;28;20728;-75
2022/06/05 00:06:38;;;;;;;2.80;1.83;;;;;;;15.08;71.98;101833.91;6221788;28;20057;-75
2022/06/05 00:09:49;;;;;;;3.08;1.98;;;;;;;15.04;72.25;101830.63;6221674;28;20057;-75
2022/06/05 00:12:54;;;;;;;3.97;1.60;;;;;;;15.03;72.09;101823.59;6222186;28;20053;-77
2022/06/05 00:15:56;;;;;;;2.00;1.52;;;;;;;14.96;72.68;101827.53;6221538;28;20061;-74
2022/06/05 00:18:59;;;;;;;3.50;2.10;;;;;;;14.98;73.56;101825.63;6217133;28;20038;-74
2022/06/05 00:22:00;;;;;;;7.40;2.00;;;;;;;15.01;74.57;101819.31;6196250;28;20086;-75
2022/06/05 00:25:02;;;;;;;3.03;2.00;;;;;;;15.02;74.93;101815.75;6194612;28;20047;-75
2022/06/05 00:28:10;;;;;;;2.67;1.95;;;;;;;15.00;74.80;101814.97;6195578;28;20057;-75
2022/06/05 00:31:18;;;;;;;3.30;1.83;;;;;;;14.89;74.85;101808.44;6203047;28;20406;-75
2022/06/05 00:34:21;;;;;;;3.35;2.25;;;;;;;14.86;75.69;101800.69;6219051;28;20046;-75
2022/06/05 00:37:30;;;;;;;2.13;1.70;;;;;;;14.87;76.49;101801.56;6221573;28;20462;-74
2022/06/05 00:40:41;;;;;;;2.90;2.03;;;;;;;14.85;76.30;101799.00;6221181;28;20648;-74
2022/06/05 00:43:42;;;;;;;2.55;1.58;;;;;;;14.78;77.26;101791.47;6221383;28;20061;-75
2022/06/05 00:46:47;;;;;;;3.97;2.20;;;;;;;14.69;78.93;101785.72;6221280;28;20056;-75
2022/06/05 00:49:54;;;;;;;3.03;1.92;;;;;;;14.66;78.89;101788.53;6225370;28;20522;-75
2022/06/05 00:52:58;;;;;;;4.60;2.65;;;;;;;14.65;79.33;101780.69;6213556;28;20042;-75
2022/06/05 00:56:00;;;;;;;3.75;2.05;;;;;;;14.66;80.18;101779.75;6199573;28;20046;-75
2022/06/05 00:59:02;;;;;;;3.47;2.10;;;;;;;14.68;80.10;101781.38;6199763;28;20046;-75
2022/06/05 01:02:03;;;;;;;4.70;2.00;;;;;;;14.64;80.33;101777.19;6203075;28;20512;-75
2022/06/05 01:05:08;;;;;;;2.38;1.70;;;;;;;14.61;81.17;101774.69;6199009;28;20522;-74
2022/06/05 01:08:12;;;;;;;3.40;2.30;;;;;;;14.61;81.35;101772.06;6199455;28;20054;-74
2022/06/05 01:11:19;;;;;;;3.15;1.98;;;;;;;14.60;81.61;101772.16;6200637;28;20046;-74
2022/06/05 01:14:29;;;;;;;4.03;2.38;;;;;;;14.58;82.32;101766.06;6200673;28;20054;-74
2022/06/05 01:17:36;;;;;;;2.38;1.75;;;;;;;14.58;82.71;101769.59;6200863;28;20042;-74
2022/06/05 01:20:51;;;;;;;3.08;2.45;;;;;;;14.55;82.97;101771.53;6200669;28;20073;-74
2022/06/05 01:24:11;;;;;;;4.78;2.30;;;;;;;14.46;83.41;101776.34;6200470;28;20065;-74
2022/06/05 01:27:19;;;;;;;4.80;2.28;;;;;;;14.40;83.86;101767.91;6200694;28;20050;-74
2022/06/05 01:30:23;;;;;;;2.90;2.03;;;;;;;14.39;83.83;101764.38;6200281;28;20074;-75
2022/06/05 01:33:28;;;;;;;3.15;1.98;;;;;;;14.34;84.33;101765.56;6217501;28;20050;-74
2022/06/05 01:36:36;;;;;;;3.95;2.08;;;;;;;14.31;84.70;101771.03;6224506;28;20041;-75
2022/06/05 01:39:43;;;;;;;4.00;2.53;;;;;;;14.28;84.93;101772.03;6224604;28;20053;-74
2022/06/05 01:42:50;;;;;;;5.55;2.13;;;;;;;14.24;85.96;101772.28;6224670;28;20050;-74
2022/06/05 01:45:57;;;;;;;3.03;2.10;;;;;;;14.18;85.64;101762.88;6223923;28;20053;-75
2022/06/05 01:49:05;;;;;;;3.45;2.33;;;;;;;14.17;85.70;101758.50;6224240;28;20058;-74
2022/06/05 01:52:10;;;;;;;5.60;2.72;;;;;;;14.06;86.75;101759.06;6224328;28;20045;-74
2022/06/05 01:55:15;;;;;;;4.35;2.25;;;;;;;13.99;87.33;101747.13;6223887;28;20049;-74
2022/06/05 01:58:22;;;;;;;3.28;2.35;;;;;;;13.96;87.62;101745.47;6224318;28;20437;-74
2022/06/05 02:01:28;;;;;;;4.88;2.60;;;;;;;13.86;88.73;101738.13;6222989;28;20050;-74
2022/06/05 02:04:34;;;;;;;2.72;2.22;;;;;;;13.81;89.22;101738.34;6223555;28;20050;-74
2022/06/05 02:07:42;;;;;;;8.48;2.58;;;;;;;13.83;89.42;101748.81;6223898;28;20053;-74
2022/06/05 02:10:48;;;;;;;3.80;2.13;;;;;;;13.80;89.22;101733.97;6223714;28;20046;-74
2022/06/05 02:13:55;;;;;;;3.53;2.80;;;;;;;13.77;90.99;101730.66;6205400;28;20054;-74
2022/06/05 02:16:59;;;;;;;2.95;2.22;;;;;;;13.78;90.32;101727.06;6199013;28;20050;-74
2022/06/05 02:20:01;;;;;;;4.95;3.00;;;;;;;13.76;90.54;101735.06;6199043;28;20050;-75
2022/06/05 02:23:06;;;;;;;3.63;2.63;;;;;;;13.75;90.60;101724.56;6199380;28;20136;-74
2022/06/05 02:26:09;;;;;;;4.38;2.45;;;;;;;13.73;90.40;101726.47;6198695;28;20494;-74
2022/06/05 02:29:15;;;;;;;3.67;2.55;;;;;;;13.67;91.22;101723.19;6199111;28;20054;-74
2022/06/05 02:32:42;;;;;;;6.85;3.53;;;;;;;13.60;92.51;101718.28;6198792;28;20076;-74
2022/06/05 02:35:54;;;;;;;5.68;2.20;;;;;;;13.57;92.34;101715.78;6174550;28;20054;-74
2022/06/05 02:39:07;;;;;;;4.97;3.00;;;;;;;13.56;93.09;101722.88;6175107;28;20491;-74
2022/06/05 02:42:21;;;;;;;3.35;2.40;;;;;;;13.56;92.97;101725.50;6197488;28;20061;-74
2022/06/05 02:45:28;;;;;;;4.45;2.97;;;;;;;13.55;93.63;101733.53;6222750;28;20049;-74
2022/06/05 02:48:35;;;;;;;5.72;2.92;;;;;;;13.55;93.87;101738.81;6223315;28;20053;-74
2022/06/05 02:51:41;;;;;;;5.68;3.15;;;;;;;13.51;94.54;101731.97;6222702;28;20046;-74
2022/06/05 02:54:51;;;;;;;6.50;3.10;;;;;;;13.47;94.83;101728.59;6223029;28;20057;-74
2022/06/05 02:57:53;;;;;;;8.57;2.97;;;;;;;13.43;95.31;101738.47;6222797;28;20072;-74
2022/06/05 03:04:14;;;;;;;4.90;2.70;;;;;;;13.40;96.68;101728.06;6222130;28;20453;-74
2022/06/05 03:07:16;;;;;;;3.95;2.95;;;;;;;13.42;96.73;101726.19;6222605;28;20433;-74
2022/06/05 03:10:18;;;;;;;5.50;2.63;;;;;;;13.38;96.73;101721.16;6222281;28;20053;-74
2022/06/05 03:13:19;;;;;;;4.28;2.70;;;;;;;13.37;96.92;101732.66;6222642;28;20053;-74
2022/06/05 03:16:22;;;;;;;4.97;2.88;;;;;;;13.33;98.07;101734.56;6222315;28;20049;-74
2022/06/05 03:19:23;;;;;;;6.05;3.30;;;;;;;13.35;97.87;101723.94;6222312;28;20599;-74
2022/06/05 03:22:26;;;;;;;5.57;3.05;;;;;;;13.34;97.57;101709.88;6222427;28;20052;-74
2022/06/05 03:25:27;;;;;;;5.47;3.00;;;;;;;13.31;97.87;101707.41;6216220;28;20050;-74
2022/06/05 03:28:29;;;;;;;4.38;3.15;;;;;;;13.29;98.22;101697.84;6196542;28;20055;-75
2022/06/05 03:31:31;;;;;;;5.80;3.33;;;;;;;13.29;99.04;101703.13;6197019;28;20566;-74
2022/06/05 03:34:33;;;;;;;4.25;2.55;;;;;;;13.35;99.17;101706.31;6218700;28;20061;-74
2022/06/05 03:37:36;;;;;;;5.45;3.15;;;;;;;13.38;98.59;101708.78;6205184;28;20051;-74
2022/06/05 03:40:40;;;;;;;4.88;2.83;;;;;;;13.37;99.15;101707.09;6196039;28;20085;-74
2022/06/05 03:43:42;;;;;;;5.63;3.22;;;;;;;13.35;99.54;101706.31;6193550;28;20046;-75
2022/06/05 03:46:45;;;;;;;4.88;3.08;;;;;;;13.34;99.99;101694.03;6196081;28;20501;-74
2022/06/05 03:49:46;;;;;;;5.78;3.17;;;;;;;13.34;100.00;101687.91;6195916;28;20039;-75
2022/06/05 03:52:48;;;;;;;3.97;2.67;;;;;;;13.35;99.65;101673.75;6196168;28;20521;-74
2022/06/05 03:55:49;;;;;;;2.78;2.20;;;;;;;13.37;99.42;101664.84;6197283;28;20050;-74
2022/06/05 03:58:52;;;;;;;2.70;2.22;;;;;;;13.37;99.22;101664.84;6195713;28;20061;-74
2022/06/05 04:01:55;;;;;;;4.68;2.88;;;;;;;13.40;99.62;101654.16;6195790;28;20057;-74
2022/06/05 04:04:56;;;;;;;5.55;2.88;;;;;;;13.44;100.00;101660.09;6195576;28;20049;-74
2022/06/05 04:07:57;;;;;;;6.15;2.88;;;;;;;13.49;99.98;101651.94;6195775;28;20054;-74
2022/06/05 04:10:59;;;;;;;5.97;2.85;;;;;;;13.51;99.55;101644.81;6197176;28;20046;-74
2022/06/05 04:14:01;;;;;;;4.10;2.97;;;;;;;13.52;99.80;101639.44;6196521;28;20498;-74
2022/06/05 04:17:04;;;;;;;4.47;2.60;;;;;;;13.54;100.00;101642.03;6196597;28;20406;-75
2022/06/05 04:20:07;;;;;;;5.45;3.03;;;;;;;13.54;99.73;101637.59;6196696;28;20050;-75
2022/06/05 04:23:10;;;;;;;4.82;3.13;;;;;;;13.62;99.70;101645.94;6203844;28;20046;-74
2022/06/05 04:26:13;;;;;;;4.63;3.28;;;;;;;13.64;100.00;101632.69;6225816;28;20053;-74
2022/06/05 04:29:15;;;;;;;4.85;2.97;;;;;;;13.74;99.56;101635.69;6226296;28;20141;-74
2022/06/05 04:32:18;;;;;;;8.55;2.78;;;;;;;13.87;98.19;101642.03;6225880;28;20524;-74
2022/06/05 04:35:19;;;;;;;6.07;3.00;;;;;;;13.91;97.79;101635.66;6225983;28;20053;-75
2022/06/05 04:38:21;;;;;;;6.68;3.50;;;;;;;13.95;97.26;101630.13;6226029;28;20050;-74
2022/06/05 04:41:24;;;;;;;5.40;3.03;;;;;;;13.98;96.80;101626.47;6225836;28;20057;-74
2022/06/05 04:44:26;;;;;;;4.28;2.72;;;;;;;14.07;95.99;101630.41;6225248;28;20061;-74
2022/06/05 04:47:28;;;;;;;4.38;2.80;;;;;;;14.14;95.15;101627.34;6226137;28;20061;-74
2022/06/05 04:50:30;;;;;;;6.10;2.55;;;;;;;14.21;94.91;101622.56;6225427;28;20053;-75
2022/06/05 04:53:31;;;;;;;3.08;2.20;;;;;;;14.27;94.88;101627.56;6225368;28;20050;-74
2022/06/05 04:56:33;;;;;;;4.65;3.00;;;;;;;14.27;94.97;101616.13;6225477;28;20489;-74
2022/06/05 04:59:34;;;;;;;4.95;2.70;;;;;;;14.33;95.24;101616.63;6225440;28;20053;-74
2022/06/05 05:02:38;;;;;;;5.28;2.63;;;;;;;14.38;95.38;101624.31;6225058;28;20049;-76
2022/06/05 05:05:39;;;;;;;3.83;2.67;;;;;;;14.37;95.18;101622.59;6225098;28;20053;-74
2022/06/05 05:08:41;;;;;;;3.50;2.47;;;;;;;14.39;95.12;101621.56;6225447;28;20046;-74
2022/06/05 05:11:42;;;;;;;3.60;2.42;;;;;;;14.41;94.88;101622.34;6224985;28;20053;-74
2022/06/05 05:14:45;;;;;;;4.25;2.25;;;;;;;14.51;93.53;101616.59;6225084;28;20054;-74
2022/06/05 05:17:48;;;;;;;4.63;2.72;;;;;;;14.61;92.32;101612.47;6215263;28;20414;-74
2022/06/05 05:20:49;;;;;;;4.55;2.53;;;;;;;14.68;91.73;101614.69;6200246;28;20048;-74
2022/06/05 05:23:52;;;;;;;4.75;2.60;;;;;;;14.78;91.50;101612.38;6206153;28;20050;-75
2022/06/05 05:26:53;;;;;;;4.45;2.58;;;;;;;14.88;90.47;101612.69;6200305;28;20054;-74
2022/06/05 05:29:54;;;;;;;5.72;2.72;;;;;;;14.95;90.11;101612.28;6199659;28;20046;-74
2022/06/05 05:32:57;;;;;;;4.30;2.60;;;;;;;15.04;89.75;101604.75;6200502;28;20054;-74
2022/06/05 05:35:59;;;;;;;4.25;2.35;;;;;;;15.15;88.96;101611.09;6198573;28;20046;-74
2022/06/05 05:42:19;;;;;;;3.05;2.10;;;;;;;15.32;89.67;101612.75;6200126;28;20502;-74
2022/06/05 05:45:20;;;;;;;6.38;2.50;;;;;;;15.44;88.52;101622.63;6199830;28;20054;-74
2022/06/05 05:48:23;;;;;;;5.22;2.53;;;;;;;15.56;87.40;101620.16;6200283;28;20113;-74
2022/06/05 05:51:24;;;;;;;3.25;2.05;;;;;;;15.65;86.82;101617.84;6199718;28;20084;-74
2022/06/05 05:54:26;;;;;;;3.75;2.20;;;;;;;15.77;85.65;101620.72;6218039;28;20045;-74
2022/06/05 05:57:27;;;;;;;3.55;2.25;;;;;;;15.87;84.90;101627.16;6223876;28;20057;-74
2022/06/05 06:00:28;;;;;;;5.40;2.15;;;;;;;15.90;83.83;101619.03;6224099;28;20053;-74
2022/06/05 06:03:31;;;;;;;5.93;2.35;;;;;;;15.95;83.33;101624.88;6224010;28;20398;-74
2022/06/05 06:06:35;;;;;;;3.60;2.30;;;;;;;16.02;84.78;101620.88;6223962;28;20049;-74
2022/06/05 06:09:37;;;;;;;3.03;1.88;;;;;;;16.07;84.48;101624.09;6223807;28;20057;-74
2022/06/05 06:12:38;;;;;;;5.00;2.22;;;;;;;16.11;85.10;101628.28;6223842;28;20425;-74
2022/06/05 06:15:39;;;;;;;2.47;2.10;;;;;;;16.15;83.99;101628.94;6223472;28;20502;-74
2022/06/05 06:18:42;;;;;;;3.17;1.90;;;;;;;16.20;85.19;101632.16;6223634;28;20057;-74
2022/06/05 06:21:44;;;;;;;4.65;2.35;;;;;;;16.26;86.49;101621.16;6223467;28;20437;-73
2022/06/05 06:24:45;;;;;;;6.20;1.83;;;;;;;16.30;85.25;101620.00;6222857;28;20097;-74
2022/06/05 06:27:46;;;;;;;3.55;2.10;;;;;;;16.37;85.37;101615.19;6223743;28;20053;-74
2022/06/05 06:30:48;;;;;;;4.10;2.67;;;;;;;16.45;84.58;101611.09;6223053;28;20053;-74
2022/06/05 06:33:51;;;;;;;2.75;2.05;;;;;;;16.61;83.10;101615.38;6223222;28;20054;-74
2022/06/05 06:36:52;;;;;;;3.90;2.17;;;;;;;16.64;83.31;101608.09;6223409;28;20052;-74
2022/06/05 06:39:53;;;;;;;4.10;2.20;;;;;;;16.73;81.88;101601.38;6223122;28;20049;-74
2022/06/05 06:42:55;;;;;;;4.05;2.03;;;;;;;16.79;82.24;101595.63;6223348;28;20073;-74
2022/06/05 06:45:56;;;;;;;5.22;2.28;;;;;;;16.87;82.30;101598.66;6222652;28;20485;-75
2022/06/05 06:48:59;;;;;;;6.38;2.13;;;;;;;16.94;83.21;101594.66;6223209;28;20057;-74
2022/06/05 06:52:01;;;;;;;2.25;1.90;;;;;;;16.99;82.34;101589.88;6222414;28;20057;-75
2022/06/05 06:55:02;;;;;;;3.70;2.10;;;;;;;17.02;82.11;101586.16;6222519;28;20057;-75
2022/06/05 06:58:03;;;;;;;3.08;1.90;;;;;;;17.04;81.31;101589.56;6223114;28;20057;-74
2022/06/05 07:01:05;;;;;;;3.08;2.05;;;;;;;17.14;80.13;101580.03;6222915;28;20521;-74
2022/06/05 07:04:07;;;;;;;3.17;1.88;;;;;;;17.17;80.71;101582.47;6222450;28;20060;-75
2022/06/05 07:07:09;;;;;;;3.10;2.00;;;;;;;17.23;81.68;101576.75;6222950;28;20049;-75
2022/06/05 07:10:10;;;;;;;3.03;1.85;;;;;;;17.27;80.86;101566.75;6222285;28;20046;-74
2022/06/05 07:13:13;;;;;;;2.85;1.80;;;;;;;17.38;79.53;101560.69;6222903;28;20045;-74
2022/06/05 07:16:14;;;;;;;3.20;1.52;;;;;;;17.50;78.52;101562.50;6222667;28;20405;-74
2022/06/05 07:19:18;;;;;;;3.92;2.00;;;;;;;17.63;77.68;101552.72;6222696;28;20042;-75
2022/06/05 07:22:20;;;;;;;2.60;2.08;;;;;;;17.69;79.08;101539.00;6222169;28;20086;-74
2022/06/05 07:25:21;;;;;;;2.75;2.15;;;;;;;17.77;78.46;101529.69;6221952;28;20057;-75
2022/06/05 07:28:22;;;;;;;2.97;1.98;;;;;;;17.88;77.33;101545.69;6222511;28;20394;-75
2022/06/05 07:31:26;;;;;;;2.60;1.58;;;;;;;17.91;77.74;101538.34;6221950;28;20141;-74
2022/06/05 07:34:28;;;;;;;2.08;1.88;;;;;;;17.98;77.65;101538.75;6222160;28;20046;-74
2022/06/05 07:37:30;;;;;;;3.85;2.40;;;;;;;18.04;76.20;101530.34;6222140;28;20053;-74
2022/06/05 07:40:31;;;;;;;3.05;1.92;;;;;;;18.10;77.19;101523.72;6217020;28;20458;-74
2022/06/05 07:43:33;;;;;;;2.28;2.05;;;;;;;18.18;77.00;101526.69;6182319;28;20054;-74
2022/06/05 07:46:36;;;;;;;4.57;2.13;;;;;;;18.28;77.07;101513.56;6191630;28;20065;-74
2022/06/05 07:49:40;;;;;;;3.95;2.25;;;;;;;18.36;75.98;101514.69;6188705;28;20050;-74
2022/06/05 07:56:01;;;;;;;3.60;2.17;;;;;;;18.48;75.71;101518.25;6197369;28;20137;-75
2022/06/05 07:59:03;;;;;;;2.67;1.98;;;;;;;18.58;73.66;101524.59;6200761;28;20577;-74
2022/06/05 08:02:08;;;;;;;3.10;2.58;;;;;;;18.66;74.46;101522.19;6203538;28;20495;-74
2022/06/05 08:05:11;;;;;;;9.35;2.30;;;;;;;18.79;75.08;101522.16;6202499;28;20053;-75
2022/06/05 08:08:12;;;;;;;2.72;2.10;;;;;;;18.91;75.22;101515.91;6202511;28;20410;-74
2022/06/05 08:11:13;;;;;;;3.45;1.88;;;;;;;19.08;74.36;101509.31;6201945;28;20042;-73
2022/06/05 08:14:15;;;;;;;2.80;1.70;;;;;;;19.17;74.44;101511.25;6202114;28;20058;-74
2022/06/05 08:17:19;;;;;;;6.55;1.73;;;;;;;19.30;73.14;101516.44;6202066;28;20050;-74
2022/06/05 08:20:22;;;;;;;2.42;1.70;;;;;;;19.40;71.77;101506.78;6202168;28;20058;-75
2022/06/05 08:23:24;;;;;;;3.90;2.00;;;;;;;19.47;72.73;101488.47;6217802;28;20041;-74
2022/06/05 08:26:25;;;;;;;2.60;1.75;;;;;;;19.54;71.98;101486.19;6226187;28;20398;-75
2022/06/05 08:29:27;;;;;;;3.25;1.80;;;;;;;19.66;71.08;101478.06;6226256;28;20042;-75
2022/06/05 08:32:29;;;;;;;3.25;1.85;;;;;;;19.75;70.41;101476.50;6226102;28;20046;-75
2022/06/05 08:35:32;;;;;;;3.28;1.90;;;;;;;19.80;71.53;101482.31;6225717;28;20069;-75
2022/06/05 08:42:03;;;;;;;3.63;1.80;;;;;;;20.09;69.90;101471.09;6225872;28;20420;-75
2022/06/05 08:45:11;;;;;;;3.08;1.83;;;;;;;20.27;67.12;101457.09;6225901;28;20054;-75
2022/06/05 08:48:21;;;;;;;3.38;2.00;;;;;;;20.37;66.61;101461.66;6225955;28;20425;-75
2022/06/05 08:51:40;;;;;;;2.83;2.13;;;;;;;20.37;67.83;101450.97;6178381;28;20066;-74
2022/06/05 08:54:44;;;;;;;;;;;;;;;20.43;68.11;101459.31;6177470;28;20498;-75
2022/06/05 08:57:51;;;;;;;4.28;1.98;;;;;;;20.51;66.65;101450.69;6177190;28;19926;-75
2022/06/05 09:00:57;;;;;;;4.00;2.28;;;;;;;20.58;65.49;101446.56;6176909;28;20047;-74
2022/06/05 09:04:05;;;;;;;3.33;1.98;;;;;;;20.57;66.33;101436.81;6176933;28;20494;-75
2022/06/05 09:07:12;;;;;;;2.17;1.80;;;;;;;20.63;66.26;101439.00;6176891;28;20054;-74
2022/06/05 09:10:18;;;;;;;2.33;2.08;;;;;;;20.76;65.01;101444.16;6176532;28;20051;-75
2022/06/05 09:13:26;;;;;;;2.60;1.70;;;;;;;20.84;64.69;101430.94;6176911;28;20058;-75
2022/06/05 09:16:30;;;;;;;3.08;2.03;;;;;;;20.91;64.77;101433.97;6176682;28;20050;-75
2022/06/05 09:19:32;;;;;;;2.72;2.00;;;;;;;20.93;65.99;101434.66;6176573;28;20423;-75
2022/06/05 09:22:44;;;;;;;2.20;1.40;;;;;;;21.03;66.04;101432.91;6197682;28;20057;-75
2022/06/05 09:25:57;;;;;;;2.53;1.80;;;;;;;21.17;65.02;101421.88;6224516;28;20045;-75
2022/06/05 09:29:13;;;;;;;3.13;2.13;;;;;;;21.30;64.46;101424.28;6225231;28;20049;-74
2022/06/05 09:33:00;;;;;;;2.50;1.98;;;;;;;21.35;63.59;101414.09;6224640;28;20046;-75
2022/06/05 09:36:06;;;;;;;1.63;1.52;;;;;;;21.42;62.95;101407.19;6224595;28;20058;-74
2022/06/05 09:39:22;;;;;;;2.03;1.80;;;;;;;21.55;62.06;101406.97;6225000;28;20057;-74
2022/06/05 09:42:45;;;;;;;5.53;1.70;;;;;;;21.61;62.66;101409.06;6224084;28;20054;-75
2022/06/05 09:45:59;;;;;;;2.97;1.88;;;;;;;21.73;62.23;101394.59;6224340;28;20429;-75
2022/06/05 09:49:05;;;;;;;3.90;2.85;;;;;;;21.82;60.90;101390.25;6218836;28;20042;-75
2022/06/05 09:52:12;;;;;;;2.35;1.83;;;;;;;21.84;61.84;101379.41;6207040;28;20405;-75
2022/06/05 09:55:19;;;;;;;3.85;2.00;;;;;;;22.01;60.00;101386.75;6223994;28;20128;-75
2022/06/05 09:58:41;;;;;;;2.15;1.75;;;;;;;22.13;60.48;101377.63;6224128;28;20418;-75
2022/06/05 10:01:50;;;;;;;7.03;2.20;;;;;;;22.20;59.69;101373.38;6224007;28;20057;-74
2022/06/05 10:04:52;;;;;;;3.55;1.98;;;;;;;22.38;59.15;101372.66;6224013;28;20057;-75
2022/06/05 10:07:58;;;;;;;3.05;2.08;;;;;;;22.49;60.55;101381.41;6223968;28;20057;-75
2022/06/05 10:11:01;;;;;;;3.63;1.98;;;;;;;22.68;58.07;101364.44;6224073;28;20492;-75
2022/06/05 10:14:17;;;;;;;3.42;1.95;;;;;;;22.79;57.11;101374.97;6223590;28;20417;-75
2022/06/05 10:17:38;;;;;;;3.35;2.13;;;;;;;22.84;57.06;101376.34;6223880;28;20054;-75
2022/06/05 10:20:49;;;;;;;1.83;1.58;;;;;;;22.90;56.58;101368.63;6223109;28;20061;-75
2022/06/05 10:23:53;;;;;;;3.05;1.90;;;;;;;22.93;53.53;101365.63;6223011;28;20127;-74
2022/06/05 10:27:00;;;;;;;1.67;1.58;;;;;;;22.82;54.11;101362.28;6218923;28;20042;-75
2022/06/05 10:30:05;;;;;;;3.00;2.33;;;;;;;22.79;54.82;101358.88;6198936;28;20042;-74
2022/06/05 10:33:17;;;;;;;2.60;1.52;;;;;;;22.85;53.77;101357.47;6199434;28;20524;-74
2022/06/05 10:36:20;;;;;;;3.58;2.20;;;;;;;22.93;53.74;101362.09;6198981;28;20136;-75
2022/06/05 10:39:27;;;;;;;2.58;1.63;;;;;;;23.09;55.08;101358.81;6199204;28;20062;-74
2022/06/05 10:42:41;;;;;;;1.95;1.73;;;;;;;23.29;53.43;101345.13;6198795;28;20050;-75
2022/06/05 10:45:50;;;;;;;2.05;1.80;;;;;;;23.43;52.20;101338.41;6198810;28;20061;-74
2022/06/05 10:48:56;;;;;;;1.97;1.77;;;;;;;23.57;52.38;101333.53;6198771;28;20414;-74
2022/06/05 10:52:09;;;;;;;2.80;1.90;;;;;;;23.52;54.07;101332.13;6206975;28;20107;-74
2022/06/05 10:55:29;;;;;;;2.47;1.83;;;;;;;23.60;53.72;101325.19;6222754;28;20076;-75
2022/06/05 10:58:39;;;;;;;2.35;1.83;;;;;;;23.79;53.72;101325.91;6222999;28;20056;-75
2022/06/05 11:02:02;;;;;;;3.35;1.70;;;;;;;23.93;53.05;101324.50;6222547;28;20053;-74
2022/06/05 11:05:21;;;;;;;2.38;1.98;;;;;;;23.96;52.95;101305.41;6222744;28;20099;-75
2022/06/05 11:08:31;;;;;;;2.05;1.60;;;;;;;24.03;51.66;101303.81;6215704;28;20434;-75
2022/06/05 11:15:03;;;;;;;1.92;1.73;;;;;;;24.09;52.66;101301.50;6193671;28;20043;-74
2022/06/05 11:18:11;;;;;;;2.33;1.80;;;;;;;24.31;51.11;101290.25;6198026;28;20061;-75
2022/06/05 11:21:17;;;;;;;3.28;2.00;;;;;;;24.54;50.31;101287.88;6195635;28;20046;-75
2022/06/05 11:24:24;;;;;;;1.98;1.50;;;;;;;24.80;49.92;101282.47;6194447;28;20450;-74
2022/06/05 11:27:32;;;;;;;4.38;1.75;;;;;;;24.98;50.07;101275.16;6198251;28;20223;-74
2022/06/05 11:30:42;;;;;;;1.95;1.60;;;;;;;25.03;49.73;101262.06;6197594;28;20042;-74
2022/06/05 11:33:53;;;;;;;2.55;2.00;;;;;;;25.21;49.08;101253.06;6196946;28;20046;-74
2022/06/05 11:36:59;;;;;;;2.33;1.60;;;;;;;25.54;48.75;101253.94;6197938;28;20054;-74
2022/06/05 11:40:10;;;;;;;2.13;1.77;;;;;;;25.74;48.47;101247.19;6197668;28;20054;-74
2022/06/05 11:43:26;;;;;;;2.30;1.80;;;;;;;25.90;47.50;101240.16;6196047;28;20054;-75
2022/06/05 11:46:32;;;;;;;2.22;1.40;;;;;;;25.61;46.12;101230.72;6197996;28;20053;-74
2022/06/05 11:49:49;;;;;;;3.67;1.63;;;;;;;25.57;47.35;101223.97;6197719;28;20058;-74
2022/06/05 11:52:56;;;;;;;1.70;1.55;;;;;;;25.69;47.45;101222.63;6216734;28;20108;-74
2022/06/05 11:56:04;;;;;;;1.60;1.45;;;;;;;25.89;45.41;101220.47;6221755;28;20057;-75
2022/06/05 11:59:17;;;;;;;2.15;1.67;;;;;;;25.77;44.40;101217.28;6222131;28;20076;-75
2022/06/05 12:02:51;;;;;;;1.80;1.50;;;;;;;25.37;46.30;101206.47;6208394;28;20043;-75
2022/06/05 12:06:00;;;;;;;2.30;1.63;;;;;;;25.12;47.92;101214.53;6190981;28;20057;-74
2022/06/05 12:09:04;;;;;;;2.05;1.58;;;;;;;24.92;46.65;101199.66;6197490;28;20050;-74
2022/06/05 12:12:13;;;;;;;3.80;1.70;;;;;;;24.76;47.79;101190.53;6197140;28;20119;-75
2022/06/05 12:15:23;;;;;;;1.60;1.42;;;;;;;24.64;49.57;101180.25;6197408;28;20057;-74
2022/06/05 12:18:32;;;;;;;2.20;1.60;;;;;;;24.73;49.74;101165.84;6197725;28;20081;-74
2022/06/05 12:21:40;;;;;;;2.22;1.85;;;;;;;24.89;50.26;101162.31;6203974;28;20045;-77
2022/06/05 12:24:47;;;;;;;13.90;4.35;;;;;;;24.76;49.90;101155.59;6189086;28;20498;-78
2022/06/05 12:28:03;;;;;;;5.40;2.10;;;;;;;24.55;50.68;101147.97;6197852;28;20196;-74
2022/06/05 12:31:13;;;;;;;1.80;1.70;;;;;;;24.41;52.61;101145.91;6206513;28;20065;-74
2022/06/05 12:34:20;;;;;;;1.95;1.48;;;;;;;24.39;51.32;101156.00;6192671;28;20053;-75
2022/06/05 12:37:26;;;;;;;2.58;2.08;;;;;;;24.41;50.78;101155.81;6194213;28;20047;-75
2022/06/05 12:40:37;;;;;;;5.18;2.00;;;;;;;24.33;50.14;101153.91;6197020;28;20047;-74
2022/06/05 12:43:58;;;;;;;2.60;1.70;;;;;;;24.26;52.33;101156.41;6196355;28;20054;-75
2022/06/05 12:47:07;;;;;;;2.47;1.95;;;;;;;24.13;50.54;101149.78;6191467;28;20050;-74
2022/06/05 12:50:33;;;;;;;1.80;1.70;;;;;;;24.12;50.01;101153.44;6201029;28;20422;-74
2022/06/05 12:53:40;;;;;;;4.07;1.58;;;;;;;24.05;49.77;101148.72;6177355;28;20059;-74
2022/06/05 12:56:44;;;;;;;3.25;1.80;;;;;;;23.98;50.81;101152.19;6186251;28;20101;-74
2022/06/05 12:59:51;;;;;;;1.35;1.20;;;;;;;23.87;49.73;101152.50;6200865;28;20289;-74
2022/06/05 13:02:58;;;;;;;1.83;1.67;;;;;;;23.81;50.48;101155.81;6201819;28;20046;-74
2022/06/05 13:06:08;;;;;;;3.30;1.85;;;;;;;23.73;50.94;101152.06;6201034;28;20050;-74
2022/06/05 13:09:18;;;;;;;2.78;1.92;;;;;;;23.74;50.82;101153.75;6195466;28;20054;-74
2022/06/05 13:12:27;;;;;;;2.33;1.75;;;;;;;23.65;51.18;101146.63;6200493;28;20042;-74
2022/06/05 13:15:32;;;;;;;5.77;1.90;;;;;;;23.58;51.65;101142.88;6201028;28;20050;-73
2022/06/05 13:18:42;;;;;;;2.83;2.13;;;;;;;23.51;52.70;101131.91;6200843;28;20418;-74
2022/06/05 13:21:53;;;;;;;4.10;2.15;;;;;;;23.45;52.32;101134.41;6197461;28;20051;-75
2022/06/05 13:25:03;;;;;;;5.78;2.40;;;;;;;23.40;52.52;101128.66;6199629;28;20425;-74
2022/06/05 13:28:14;;;;;;;4.47;2.88;;;;;;;23.38;53.02;101130.63;6199132;28;20495;-73
2022/06/05 13:31:33;;;;;;;2.30;2.08;;;;;;;23.37;52.83;101132.47;6196927;28;20137;-74
2022/06/05 13:34:39;;;;;;;2.08;1.83;;;;;;;23.37;53.48;101129.81;6199676;28;20569;-75
2022/06/05 13:37:48;;;;;;;2.63;1.88;;;;;;;23.39;53.98;101124.28;6191222;28;20047;-75
2022/06/05 13:40:58;;;;;;;2.65;1.73;;;;;;;23.42;53.13;101115.91;6199392;28;20445;-75
2022/06/05 13:44:02;;;;;;;1.88;1.67;;;;;;;23.41;53.29;101120.44;6200200;28;20054;-75
2022/06/05 13:47:16;;;;;;;2.45;2.08;;;;;;;23.43;54.46;101113.06;6200509;28;20054;-75
2022/06/05 13:50:28;;;;;;;4.22;2.15;;;;;;;23.38;55.45;101110.03;6200328;28;20054;-75
2022/06/05 13:53:38;;;;;;;2.28;1.88;;;;;;;23.35;56.72;101107.66;6223272;28;20042;-76
2022/06/05 13:56:50;;;;;;;2.13;1.77;;;;;;;23.30;56.34;101099.25;6222693;28;20502;-75
2022/06/05 13:59:57;;;;;;;1.80;1.52;;;;;;;23.32;55.09;101091.03;6204334;28;20100;-74
2022/06/05 14:03:05;;;;;;;2.83;2.05;;;;;;;23.34;55.51;101089.88;6200202;28;20051;-75
2022/06/05 14:06:17;;;;;;;2.33;1.63;;;;;;;23.31;55.24;101089.38;6199789;28;20069;-74
2022/06/05 14:09:38;;;;;;;2.03;1.85;;;;;;;23.30;56.50;101085.84;6200047;28;20294;-73
2022/06/05 14:12:53;;;;;;;2.80;1.90;;;;;;;23.28;55.03;101083.28;6199836;28;20053;-75
2022/06/05 14:15:58;;;;;;;2.10;1.90;;;;;;;23.23;54.20;101074.03;6199283;28;20050;-73
2022/06/05 14:19:03;;;;;;;1.80;1.60;;;;;;;23.29;53.19;101076.09;6199663;28;20050;-74
2022/06/05 14:22:13;;;;;;;2.17;1.75;;;;;;;23.21;55.60;101068.84;6214388;28;20083;-75
2022/06/05 14:25:20;;;;;;;7.38;1.65;;;;;;;23.15;56.24;101065.94;6194590;28;20057;-76
2022/06/05 14:28:24;;;;;;;2.13;1.83;;;;;;;23.13;55.23;101057.22;6194040;28;20686;-75
2022/06/05 14:31:25;;;;;;;1.60;1.50;;;;;;;23.04;56.87;101059.00;6198184;28;20074;-75
2022/06/05 14:34:33;;;;;;;1.75;1.58;;;;;;;22.96;57.95;101061.59;6193148;28;20054;-76
2022/06/05 14:37:38;;;;;;;1.98;1.48;;;;;;;22.89;58.11;101050.66;6194943;28;20513;-75
2022/06/05 14:40:50;;;;;;;1.83;1.70;;;;;;;22.83;58.81;101043.19;6193871;28;20054;-75